Olmos, Texas
Current Conditions -  °F | °C
As of 11:55 AM on Thursday 23 Oct 2014 (Local Time) from KBEA Reporting Station
Clear Clear  
Wind Chill: 79°   Ceiling: Unl
Heat Index: 80°   Visibility: 10mi
Dew Point: 61°   Wind: 6mph
Humidity: 54%   Direction: 40°NE
Pressure: 30.12"   Gusts: NA
Location:  28.2201°N, 97.6762°W
Report Text: KBEA 231655Z AUTO 04005KT 10SM CLR 26/16 A3012 RMK AO2 T02600160
Loading
Personal Weather Stations






























Interactive Weather Map
Tropical Storm Tracking
New forecast layout! Learn more

10-Day Weather Forecast

Advertisements
Track Severe Weather on mobile